createdAt,value
2019-01-05T00:00:30.603Z,101667.43
2019-01-05T00:01:27.825Z,101682.78
2019-01-05T00:02:18.378Z,101674.21
2019-01-05T00:03:11.700Z,101672.55
2019-01-05T00:04:04.487Z,101664.52
2019-01-05T00:05:11.208Z,101675.61
2019-01-05T00:06:04.335Z,101663.53
2019-01-05T00:06:57.989Z,101666.95
2019-01-05T00:07:46.617Z,101666.90
2019-01-05T00:08:41.266Z,101673.67
2019-01-05T00:09:41.711Z,101669.62
2019-01-05T00:10:34.890Z,101667.31
2019-01-05T00:11:44.556Z,101677.45
2019-01-05T00:12:45.030Z,101673.02
2019-01-05T00:13:51.350Z,101668.59
2019-01-05T00:14:44.392Z,101666.42
2019-01-05T00:15:38.414Z,101666.52
2019-01-05T00:16:45.415Z,101669.96
2019-01-05T00:17:45.926Z,101674.98
2019-01-05T00:18:40.844Z,101680.09
2019-01-05T00:19:32.585Z,101666.23
2019-01-05T00:20:25.897Z,101674.34
2019-01-05T00:21:25.612Z,101668.79
2019-01-05T00:22:22.133Z,101668.41
2019-01-05T00:23:17.223Z,101667.51
2019-01-05T00:24:17.756Z,101674.37
2019-01-05T00:25:10.953Z,101669.33
2019-01-05T00:26:03.865Z,101669.04
2019-01-05T00:27:08.271Z,101659.97
2019-01-05T00:28:20.703Z,101671.41
2019-01-05T00:29:19.086Z,101665.40
2019-01-05T00:30:22.569Z,101670.55
2019-01-05T00:31:20.908Z,101667.13
2019-01-05T00:32:49.880Z,101661.56
2019-01-05T00:33:45.615Z,101660.06
2019-01-05T00:34:54.694Z,101657.20
2019-01-05T00:36:33.167Z,101654.97
2019-01-05T00:37:27.392Z,101652.33
2019-01-05T00:38:21.784Z,101650.69
2019-01-05T00:39:14.701Z,101649.95
2019-01-05T00:40:17.158Z,101648.13
2019-01-05T00:41:10.173Z,101654.97
2019-01-05T00:42:02.712Z,101653.78
2019-01-05T00:42:56.062Z,101656.67
2019-01-05T00:43:58.094Z,101658.36
2019-01-05T00:45:03.810Z,101654.88
2019-01-05T00:45:57.883Z,101661.42
2019-01-05T00:47:06.219Z,101654.62
2019-01-05T00:48:01.502Z,101655.09
2019-01-05T00:49:00.899Z,101661.16
2019-01-05T00:49:54.488Z,101659.08
2019-01-05T00:50:50.402Z,101665.32
2019-01-05T00:51:45.873Z,101662.34
2019-01-05T00:52:43.418Z,101663.59
2019-01-05T00:53:36.979Z,101665.14
2019-01-05T00:54:36.564Z,101665.67
2019-01-05T00:55:29.844Z,101669.45
2019-01-05T00:56:31.230Z,101673.67
2019-01-05T00:57:27.635Z,101671.30
2019-01-05T00:58:25.795Z,101672.55
2019-01-05T00:59:18.963Z,101673.98
2019-01-05T01:00:16.563Z,101662.41
2019-01-05T01:01:19.923Z,101669.16
2019-01-05T01:02:13.555Z,101662.88
2019-01-05T01:03:13.791Z,101669.57
2019-01-05T01:04:20.017Z,101664.05
2019-01-05T01:05:12.168Z,101666.57
2019-01-05T01:05:58.121Z,101667.41
2019-01-05T01:06:50.910Z,101665.73
2019-01-05T01:07:44.238Z,101661.42
2019-01-05T01:08:32.892Z,101659.28
2019-01-05T01:09:22.895Z,101661.36
2019-01-05T01:10:26.485Z,101659.23
2019-01-05T01:11:30.931Z,101647.24
2019-01-05T01:12:24.162Z,101661.42
2019-01-05T01:13:18.566Z,101659.82
2019-01-05T01:14:12.628Z,101666.03
2019-01-05T01:15:05.914Z,101666.98
2019-01-05T01:16:00.426Z,101664.94
2019-01-05T01:16:53.958Z,101665.65
2019-01-05T01:17:44.572Z,101668.30
2019-01-05T01:18:42.852Z,101666.19
2019-01-05T01:19:36.131Z,101661.61
2019-01-05T01:20:29.539Z,101670.77
2019-01-05T01:21:26.842Z,101666.60
2019-01-05T01:22:39.896Z,101669.57
2019-01-05T01:23:37.664Z,101660.09
2019-01-05T01:24:30.421Z,101652.03
2019-01-05T01:25:29.938Z,101652.77
2019-01-05T01:26:36.908Z,101660.41
2019-01-05T01:27:34.621Z,101659.52
2019-01-05T01:28:28.236Z,101651.31
2019-01-05T01:29:25.425Z,101654.85
2019-01-05T01:30:25.328Z,101652.97
2019-01-05T01:31:23.010Z,101645.66
2019-01-05T01:32:16.394Z,101640.45
2019-01-05T01:33:17.691Z,101646.07
2019-01-05T01:34:18.080Z,101646.91
2019-01-05T01:35:11.570Z,101643.48
2019-01-05T01:36:07.576Z,101640.83
2019-01-05T01:36:58.187Z,101635.78
2019-01-05T01:38:36.066Z,101640.83
2019-01-05T01:39:31.997Z,101647.57
2019-01-05T01:40:33.638Z,101640.83
2019-01-05T01:41:45.141Z,101644.63
2019-01-05T01:42:55.455Z,101642.02
2019-01-05T01:43:59.000Z,101646.33
2019-01-05T01:44:59.994Z,101645.94
2019-01-05T01:46:09.686Z,101642.11
2019-01-05T01:47:10.439Z,101643.80
2019-01-05T01:48:14.959Z,101640.41
2019-01-05T01:49:13.224Z,101648.50
2019-01-05T01:50:06.297Z,101644.77
2019-01-05T01:51:01.094Z,101644.44
2019-01-05T01:51:55.624Z,101637.95
2019-01-05T01:52:51.747Z,101635.43
2019-01-05T01:53:45.210Z,101627.70
2019-01-05T01:54:38.511Z,101625.05
2019-01-05T01:55:30.307Z,101632.42
2019-01-05T01:56:24.478Z,101634.22
2019-01-05T01:57:23.653Z,101628.72
2019-01-05T01:58:29.770Z,101631.92
2019-01-05T01:59:42.436Z,101632.84
2019-01-05T02:00:43.253Z,101627.44
2019-01-05T02:01:52.942Z,101622.14
2019-01-05T02:02:51.942Z,101617.03
2019-01-05T02:03:49.395Z,101613.67
2019-01-05T02:04:50.197Z,101620.86
2019-01-05T02:05:45.474Z,101613.99
2019-01-05T02:06:47.342Z,101614.12
2019-01-05T02:07:41.753Z,101611.98
2019-01-05T02:08:44.653Z,101609.13
2019-01-05T02:09:43.467Z,101611.27
2019-01-05T02:10:42.755Z,101605.27
2019-01-05T02:11:39.718Z,101611.80
2019-01-05T02:12:25.856Z,101614.66
2019-01-05T02:13:23.823Z,101610.11
2019-01-05T02:14:35.601Z,101610.49
2019-01-05T02:15:30.960Z,101610.20
2019-01-05T02:16:34.674Z,101613.28
2019-01-05T02:17:51.259Z,101614.12
2019-01-05T02:19:07.411Z,101603.74
2019-01-05T02:20:13.870Z,101607.58
2019-01-05T02:21:30.605Z,101610.64
2019-01-05T02:22:46.382Z,101602.55
2019-01-05T02:24:27.304Z,101597.86
2019-01-05T02:25:51.545Z,101597.97
2019-01-05T02:27:21.922Z,101593.21
2019-01-05T02:28:49.586Z,101585.98
2019-01-05T02:30:31.630Z,101600.94
2019-01-05T02:31:46.576Z,101594.16
2019-01-05T02:33:05.631Z,101598.72
2019-01-05T02:34:15.255Z,101595.05
2019-01-05T02:35:39.442Z,101590.09
2019-01-05T02:37:11.653Z,101592.13
2019-01-05T02:38:36.086Z,101598.02
2019-01-05T02:39:59.745Z,101583.06
2019-01-05T02:41:19.402Z,101595.35
2019-01-05T02:43:08.781Z,101579.20
2019-01-05T02:45:11.172Z,101575.81
2019-01-05T02:46:56.305Z,101568.16
2019-01-05T02:48:29.386Z,101569.42
2019-01-05T02:50:00.221Z,101579.67
2019-01-05T02:51:31.230Z,101572.45
2019-01-05T02:53:08.557Z,101578.58
2019-01-05T02:54:41.082Z,101574.23
2019-01-05T02:56:16.336Z,101564.36
2019-01-05T02:57:58.715Z,101551.62
2019-01-05T02:59:31.980Z,101550.31
2019-01-05T03:01:09.265Z,101544.36
2019-01-05T03:02:34.260Z,101542.84
2019-01-05T03:04:16.893Z,101539.38
2019-01-05T03:05:40.390Z,101529.66
2019-01-05T03:07:06.097Z,101527.91
2019-01-05T03:08:59.141Z,101523.53
2019-01-05T03:10:28.761Z,101533.30
2019-01-05T03:12:30.931Z,101523.48
2019-01-05T03:14:02.869Z,101511.14
2019-01-05T03:15:27.255Z,101516.62
2019-01-05T03:16:45.886Z,101506.88
2019-01-05T03:18:13.731Z,101506.00
2019-01-05T03:19:57.316Z,101505.89
2019-01-05T03:21:48.204Z,101510.38
2019-01-05T03:23:29.570Z,101510.81
2019-01-05T03:24:45.110Z,101510.55
2019-01-05T03:26:47.979Z,101502.38
2019-01-05T03:28:24.963Z,101496.85
2019-01-05T03:29:51.138Z,101493.09
2019-01-05T03:31:19.181Z,101510.50
2019-01-05T03:32:55.947Z,101496.91
2019-01-05T03:34:22.164Z,101493.80
2019-01-05T03:36:18.966Z,101483.09
2019-01-05T03:38:00.566Z,101488.55
2019-01-05T03:39:14.174Z,101485.03
2019-01-05T03:40:38.920Z,101489.31
2019-01-05T03:41:56.754Z,101491.40
2019-01-05T03:43:22.653Z,101488.11
2019-01-05T03:44:58.040Z,101508.20
2019-01-05T03:46:49.212Z,101494.87
2019-01-05T03:48:29.180Z,101493.17
2019-01-05T03:49:59.035Z,101499.70
2019-01-05T03:51:57.000Z,101480.75
2019-01-05T03:53:41.432Z,101489.64
2019-01-05T03:55:09.428Z,101492.65
2019-01-05T03:56:43.559Z,101481.95
2019-01-05T03:58:26.386Z,101486.73
2019-01-05T04:00:34.831Z,101486.36
2019-01-05T04:02:00.512Z,101487.90
2019-01-05T04:03:49.032Z,101477.26
2019-01-05T04:05:24.930Z,101485.70
2019-01-05T04:07:01.469Z,101475.54
2019-01-05T04:08:26.361Z,101472.42
2019-01-05T04:09:49.121Z,101465.56
2019-01-05T04:11:21.525Z,101459.23
2019-01-05T04:13:10.903Z,101463.92
2019-01-05T04:14:43.169Z,101462.15
2019-01-05T04:16:09.807Z,101462.29
2019-01-05T04:17:28.856Z,101458.80
2019-01-05T04:19:22.102Z,101452.81
2019-01-05T04:21:06.563Z,101443.87
2019-01-05T04:22:39.949Z,101447.09
2019-01-05T04:24:19.286Z,101436.05
2019-01-05T04:26:19.949Z,101442.12
2019-01-05T04:27:56.447Z,101441.55
2019-01-05T04:29:42.057Z,101435.19
2019-01-05T04:31:39.220Z,101438.62
2019-01-05T04:33:14.733Z,101439.44
2019-01-05T04:34:43.105Z,101439.44
2019-01-05T04:36:22.345Z,101438.16
2019-01-05T04:37:57.133Z,101434.21
2019-01-05T04:39:32.819Z,101429.91
2019-01-05T04:41:01.797Z,101427.83
2019-01-05T04:42:44.626Z,101433.44
2019-01-05T04:44:11.366Z,101432.96
2019-01-05T04:45:58.392Z,101421.05
2019-01-05T04:47:31.058Z,101423.99
2019-01-05T04:48:57.989Z,101428.38
2019-01-05T04:50:43.440Z,101404.89
2019-01-05T04:52:19.604Z,101407.80
2019-01-05T04:53:54.677Z,101403.95
2019-01-05T04:55:41.759Z,101410.00
2019-01-05T04:57:33.397Z,101406.66
2019-01-05T04:59:07.957Z,101406.23
2019-01-05T05:00:52.020Z,101402.28
2019-01-05T05:02:17.294Z,101396.78
2019-01-05T05:03:47.184Z,101395.09
2019-01-05T05:05:23.672Z,101403.98
2019-01-05T05:06:55.655Z,101392.48
2019-01-05T05:08:38.899Z,101384.04
2019-01-05T05:10:20.788Z,101384.77
2019-01-05T05:12:05.185Z,101381.02
2019-01-05T05:13:39.447Z,101374.19
2019-01-05T05:15:15.689Z,101385.67
2019-01-05T05:16:47.728Z,101384.80
2019-01-05T05:18:12.572Z,101370.80
2019-01-05T05:19:41.660Z,101355.88
2019-01-05T05:21:00.901Z,101360.24
2019-01-05T05:22:54.033Z,101361.10
2019-01-05T05:24:37.153Z,101350.78
2019-01-05T05:26:06.687Z,101356.41
2019-01-05T05:28:03.524Z,101356.38
2019-01-05T05:29:55.976Z,101357.11
2019-01-05T05:31:40.618Z,101354.11
2019-01-05T05:33:37.267Z,101353.20
2019-01-05T05:35:04.802Z,101352.81
2019-01-05T05:36:35.188Z,101364.36
2019-01-05T05:38:04.517Z,101355.97
2019-01-05T05:39:43.354Z,101356.80
2019-01-05T05:41:16.415Z,101358.00
2019-01-05T05:42:55.657Z,101359.27
2019-01-05T05:44:24.815Z,101361.41
2019-01-05T05:46:16.447Z,101366.13
2019-01-05T05:47:41.660Z,101362.40
2019-01-05T05:49:06.765Z,101356.33
2019-01-05T05:50:39.185Z,101360.24
2019-01-05T05:52:18.256Z,101364.83
2019-01-05T05:54:03.298Z,101356.41
2019-01-05T05:55:27.141Z,101350.44
2019-01-05T05:56:43.611Z,101355.99
2019-01-05T05:58:20.782Z,101355.99
2019-01-05T05:59:57.606Z,101373.90
2019-01-05T06:01:42.950Z,101349.30
2019-01-05T06:03:17.065Z,101335.23
2019-01-05T06:04:50.868Z,101333.09
2019-01-05T06:06:15.060Z,101330.95
2019-01-05T06:07:43.913Z,101321.50
2019-01-05T06:09:37.239Z,101318.19
2019-01-05T06:11:05.046Z,101319.34
2019-01-05T06:12:51.919Z,101321.87
2019-01-05T06:14:41.826Z,101315.12
2019-01-05T06:15:56.100Z,101318.11
2019-01-05T06:17:09.135Z,101320.59
2019-01-05T06:18:46.239Z,101316.81
2019-01-05T06:20:19.886Z,101317.98
2019-01-05T06:21:55.810Z,101320.12
2019-01-05T06:23:23.692Z,101319.34
2019-01-05T06:24:51.261Z,101313.84
2019-01-05T06:26:41.018Z,101315.02
2019-01-05T06:28:14.979Z,101314.65
2019-01-05T06:29:45.879Z,101326.07
2019-01-05T06:31:33.225Z,101321.41
2019-01-05T06:33:20.931Z,101309.95
2019-01-05T06:35:04.340Z,101306.91
2019-01-05T06:36:38.551Z,101311.20
2019-01-05T06:37:47.324Z,101308.72
2019-01-05T06:39:35.338Z,101301.84
2019-01-05T06:41:17.487Z,101309.48
2019-01-05T06:42:54.509Z,101309.48
2019-01-05T06:45:01.727Z,101304.02
2019-01-05T06:46:32.702Z,101303.63
2019-01-05T06:48:28.373Z,101301.80
2019-01-05T06:50:06.321Z,101306.52
2019-01-05T06:51:42.071Z,101307.41
2019-01-05T06:53:34.792Z,101299.25
2019-01-05T06:55:11.643Z,101306.47
2019-01-05T06:57:16.707Z,101291.19
2019-01-05T06:58:54.404Z,101295.08
2019-01-05T07:00:43.632Z,101304.05
2019-01-05T07:02:07.013Z,101298.95
2019-01-05T07:03:48.406Z,101303.59
2019-01-05T07:05:34.046Z,101301.48
2019-01-05T07:07:12.680Z,101302.75
2019-01-05T07:08:44.888Z,101299.73
2019-01-05T07:10:08.537Z,101298.05
2019-01-05T07:11:37.419Z,101290.84
2019-01-05T07:13:33.645Z,101281.81
2019-01-05T07:15:23.906Z,101292.47
2019-01-05T07:16:57.875Z,101289.89
2019-01-05T07:18:30.629Z,101283.05
2019-01-05T07:19:56.879Z,101288.95
2019-01-05T07:21:30.568Z,101280.42
2019-01-05T07:23:02.384Z,101283.45
2019-01-05T07:24:40.849Z,101283.92
2019-01-05T07:26:20.762Z,101285.63
2019-01-05T07:27:56.363Z,101287.24
2019-01-05T07:29:37.994Z,101292.84
2019-01-05T07:31:10.015Z,101283.52
2019-01-05T07:32:29.491Z,101279.67
2019-01-05T07:34:06.937Z,101280.95
2019-01-05T07:35:36.225Z,101275.33
2019-01-05T07:37:14.796Z,101283.39
2019-01-05T07:39:07.059Z,101286.33
2019-01-05T07:40:56.074Z,101271.16
2019-01-05T07:42:24.917Z,101274.52
2019-01-05T07:43:49.242Z,101277.05
2019-01-05T07:45:44.334Z,101274.96
2019-01-05T07:46:51.276Z,101280.77
2019-01-05T07:48:50.435Z,101282.11
2019-01-05T07:50:37.647Z,101277.09
2019-01-05T07:52:20.739Z,101266.81
2019-01-05T07:54:21.268Z,101275.73
2019-01-05T07:56:20.201Z,101275.30
2019-01-05T07:57:57.351Z,101271.55
2019-01-05T07:59:39.877Z,101276.66
2019-01-05T08:01:20.521Z,101283.08
2019-01-05T08:03:02.218Z,101282.64
2019-01-05T08:04:57.917Z,101277.63
2019-01-05T08:07:03.861Z,101281.51
2019-01-05T08:08:39.423Z,101270.08
2019-01-05T08:10:31.041Z,101269.03
2019-01-05T08:11:57.507Z,101277.09
2019-01-05T08:13:44.143Z,101275.05
2019-01-05T08:15:35.807Z,101266.04
2019-01-05T08:17:05.484Z,101265.97
2019-01-05T08:18:34.427Z,101277.54
2019-01-05T08:20:18.817Z,101277.12
2019-01-05T08:22:17.686Z,101270.32
2019-01-05T08:23:34.765Z,101262.67
2019-01-05T08:25:23.397Z,101265.72
2019-01-05T08:27:07.679Z,101270.01
2019-01-05T08:28:37.547Z,101270.32
2019-01-05T08:30:10.119Z,101260.52
2019-01-05T08:31:38.572Z,101257.56
2019-01-05T08:33:35.176Z,101253.20
2019-01-05T08:35:24.745Z,101252.41
2019-01-05T08:37:02.865Z,101254.53
2019-01-05T08:38:41.461Z,101249.81
2019-01-05T08:40:14.527Z,101250.34
2019-01-05T08:42:13.647Z,101242.59
2019-01-05T08:43:53.645Z,101246.42
2019-01-05T08:45:21.668Z,101260.52
2019-01-05T08:46:50.216Z,101256.78
2019-01-05T08:48:51.074Z,101253.52
2019-01-05T08:50:31.694Z,101245.30
2019-01-05T08:51:49.957Z,101244.86
2019-01-05T08:53:31.430Z,101251.69
2019-01-05T08:55:09.018Z,101244.84
2019-01-05T08:56:50.623Z,101241.87
2019-01-05T08:58:36.116Z,101245.69
2019-01-05T09:00:10.535Z,101249.11
2019-01-05T09:02:03.086Z,101251.20
2019-01-05T09:03:22.734Z,101248.62
2019-01-05T09:05:21.933Z,101236.77
2019-01-05T09:07:00.133Z,101229.99
2019-01-05T09:08:37.780Z,101236.01
2019-01-05T09:10:00.200Z,101226.61
2019-01-05T09:11:35.298Z,101225.34
2019-01-05T09:13:07.260Z,101223.30
2019-01-05T09:15:04.403Z,101224.19
2019-01-05T09:16:44.096Z,101219.08
2019-01-05T09:18:21.355Z,101220.84
2019-01-05T09:19:53.772Z,101214.83
2019-01-05T09:21:28.196Z,101214.36
2019-01-05T09:23:09.385Z,101221.29
2019-01-05T09:24:58.321Z,101224.67
2019-01-05T09:26:36.127Z,101220.42
2019-01-05T09:28:13.156Z,101220.77
2019-01-05T09:29:53.122Z,101219.87
2019-01-05T09:31:15.023Z,101213.15
2019-01-05T09:32:43.538Z,101221.69
2019-01-05T09:34:16.801Z,101227.31
2019-01-05T09:36:02.398Z,101223.42
2019-01-05T09:37:41.703Z,101229.49
2019-01-05T09:39:17.323Z,101228.22
2019-01-05T09:41:03.522Z,101233.68
2019-01-05T09:42:46.264Z,101234.54
2019-01-05T09:44:30.512Z,101233.34
2019-01-05T09:46:01.318Z,101229.00
2019-01-05T09:47:22.722Z,101233.65
2019-01-05T09:49:18.618Z,101238.89
2019-01-05T09:50:51.401Z,101238.02
2019-01-05T09:52:16.160Z,101227.73
2019-01-05T09:53:53.173Z,101227.89
2019-01-05T09:55:22.242Z,101224.88
2019-01-05T09:56:59.264Z,101229.97
2019-01-05T09:58:49.115Z,101227.03
2019-01-05T10:00:24.297Z,101225.80
2019-01-05T10:02:00.767Z,101226.66
2019-01-05T10:03:40.238Z,101219.41
2019-01-05T10:05:13.015Z,101217.30
2019-01-05T10:06:41.648Z,101227.59
2019-01-05T10:08:33.894Z,101223.39
2019-01-05T10:09:59.600Z,101219.09
2019-01-05T10:11:31.064Z,101221.70
2019-01-05T10:13:18.868Z,101224.76
2019-01-05T10:15:12.614Z,101224.80
2019-01-05T10:16:51.984Z,101225.66
2019-01-05T10:18:15.258Z,101221.44
2019-01-05T10:19:52.501Z,101224.92
2019-01-05T10:21:22.935Z,101222.77
2019-01-05T10:23:23.591Z,101228.77
2019-01-05T10:24:54.165Z,101222.84
2019-01-05T10:26:23.604Z,101221.13
2019-01-05T10:28:19.601Z,101225.82
2019-01-05T10:29:51.696Z,101225.02
2019-01-05T10:31:29.094Z,101221.13
2019-01-05T10:32:50.222Z,101222.47
2019-01-05T10:34:31.430Z,101215.63
2019-01-05T10:36:14.067Z,101213.05
2019-01-05T10:38:08.977Z,101213.10
2019-01-05T10:39:37.325Z,101216.19
2019-01-05T10:41:16.694Z,101206.95
2019-01-05T10:43:08.494Z,101210.77
2019-01-05T10:44:53.111Z,101204.41
2019-01-05T10:46:21.639Z,101188.61
2019-01-05T10:47:45.560Z,101194.17
2019-01-05T10:49:39.420Z,101185.70
2019-01-05T10:50:55.563Z,101180.59
2019-01-05T10:52:41.184Z,101180.20
2019-01-05T10:54:20.060Z,101171.66
2019-01-05T10:56:17.277Z,101179.34
2019-01-05T10:57:52.674Z,101176.77
2019-01-05T10:59:47.505Z,101185.77
2019-01-05T11:01:35.131Z,101178.48
2019-01-05T11:03:18.377Z,101187.91
2019-01-05T11:04:42.810Z,101188.77
2019-01-05T11:06:00.152Z,101184.05
2019-01-05T11:07:25.984Z,101185.75
2019-01-05T11:09:17.733Z,101184.48
2019-01-05T11:10:58.660Z,101183.21
2019-01-05T11:12:39.924Z,101173.36
2019-01-05T11:14:17.395Z,101184.03
2019-01-05T11:15:53.012Z,101175.50
2019-01-05T11:17:07.954Z,101179.78
2019-01-05T11:18:32.288Z,101178.48
2019-01-05T11:20:02.197Z,101182.34
2019-01-05T11:21:37.187Z,101176.34
2019-01-05T11:23:17.137Z,101180.20
2019-01-05T11:24:57.242Z,101175.06
2019-01-05T11:26:27.139Z,101167.78
2019-01-05T11:28:32.328Z,101161.38
2019-01-05T11:30:35.987Z,101169.91
2019-01-05T11:32:14.518Z,101169.09
2019-01-05T11:33:45.376Z,101168.25
2019-01-05T11:35:15.616Z,101164.39
2019-01-05T11:36:58.173Z,101159.68
2019-01-05T11:38:24.541Z,101167.79
2019-01-05T11:39:38.977Z,101161.80
2019-01-05T11:41:08.432Z,101157.98
2019-01-05T11:42:53.235Z,101154.55
2019-01-05T11:44:39.605Z,101155.84
2019-01-05T11:45:58.929Z,101153.69
2019-01-05T11:47:29.835Z,101150.26
2019-01-05T11:48:51.012Z,101149.41
2019-01-05T11:50:46.203Z,101154.12
2019-01-05T11:52:08.721Z,101151.55
2019-01-05T11:53:48.684Z,101150.28
2019-01-05T11:55:13.084Z,101149.00
2019-01-05T11:56:39.565Z,101145.14
2019-01-05T11:58:00.676Z,101155.84
2019-01-05T11:59:17.267Z,101153.27
2019-01-05T12:01:01.354Z,101148.99
2019-01-05T12:02:30.697Z,101144.28
2019-01-05T12:04:14.984Z,101146.43
2019-01-05T12:06:21.920Z,101143.00
2019-01-05T12:08:04.795Z,101142.56
2019-01-05T12:09:43.597Z,101142.58
2019-01-05T12:11:44.884Z,101143.44
2019-01-05T12:13:34.022Z,101150.28
2019-01-05T12:15:06.639Z,101149.44
2019-01-05T12:16:24.823Z,101153.70
2019-01-05T12:17:49.643Z,101148.55
2019-01-05T12:19:17.904Z,101148.56
2019-01-05T12:20:43.010Z,101152.86
2019-01-05T12:22:19.972Z,101142.16
2019-01-05T12:23:52.550Z,101142.56
2019-01-05T12:25:23.706Z,101144.27
2019-01-05T12:27:04.739Z,101139.95
2019-01-05T12:28:28.937Z,101136.52
2019-01-05T12:30:26.793Z,101144.58
2019-01-05T12:32:09.861Z,101145.37
2019-01-05T12:33:38.774Z,101143.50
2019-01-05T12:35:07.625Z,101137.84
2019-01-05T12:36:27.158Z,101136.45
2019-01-05T12:37:46.915Z,101140.78
2019-01-05T12:39:05.106Z,101150.22
2019-01-05T12:40:45.941Z,101143.40
2019-01-05T12:42:34.357Z,101145.39
2019-01-05T12:44:02.091Z,101151.77
2019-01-05T12:45:54.329Z,101148.34
2019-01-05T12:47:28.223Z,101146.63
2019-01-05T12:49:03.527Z,101153.48
2019-01-05T12:50:47.328Z,101140.98
2019-01-05T12:52:36.087Z,101137.50
2019-01-05T12:54:12.238Z,101147.03
2019-01-05T12:55:56.702Z,101151.81
2019-01-05T12:57:27.964Z,101151.39
2019-01-05T12:59:33.087Z,101153.48
2019-01-05T13:01:18.751Z,101152.63
2019-01-05T13:03:09.529Z,101158.23
2019-01-05T13:04:42.524Z,101158.58
2019-01-05T13:06:21.205Z,101160.28
2019-01-05T13:07:51.952Z,101172.77
2019-01-05T13:09:23.266Z,101163.27
2019-01-05T13:11:08.529Z,101161.50
2019-01-05T13:12:42.882Z,101161.14
2019-01-05T13:14:02.710Z,101157.16
2019-01-05T13:15:44.624Z,101176.95
2019-01-05T13:17:20.197Z,101174.80
2019-01-05T13:18:53.341Z,101176.14
2019-01-05T13:20:55.066Z,101173.62
2019-01-05T13:22:46.594Z,101179.14
2019-01-05T13:24:31.309Z,101177.38
2019-01-05T13:26:03.322Z,101183.00
2019-01-05T13:27:33.637Z,101183.00
2019-01-05T13:28:57.871Z,101177.00
2019-01-05T13:30:23.750Z,101176.56
2019-01-05T13:32:02.386Z,101185.09
2019-01-05T13:33:18.394Z,101192.44
2019-01-05T13:34:32.574Z,101193.30
2019-01-05T13:36:04.032Z,101189.86
2019-01-05T13:37:48.730Z,101192.39
2019-01-05T13:39:32.600Z,101194.10
2019-01-05T13:40:56.678Z,101193.19
2019-01-05T13:42:32.200Z,101193.24
2019-01-05T13:44:14.103Z,101197.05
2019-01-05T13:45:57.810Z,101195.33
2019-01-05T13:47:24.574Z,101195.39
2019-01-05T13:49:00.641Z,101192.76
2019-01-05T13:50:36.570Z,101193.17
2019-01-05T13:51:56.543Z,101187.18
2019-01-05T13:53:35.104Z,101185.95
2019-01-05T13:54:38.810Z,101184.19
2019-01-05T13:55:50.104Z,101191.02
2019-01-05T13:57:04.929Z,101191.91
2019-01-05T13:58:11.787Z,101196.67
2019-01-05T13:59:04.400Z,101198.28
2019-01-05T13:59:57.721Z,101199.18
2019-01-05T14:00:51.131Z,101201.75
2019-01-05T14:01:45.791Z,101193.61
2019-01-05T14:02:38.910Z,101204.33
2019-01-05T14:03:32.010Z,101200.05
2019-01-05T14:04:25.015Z,101206.95
2019-01-05T14:05:18.210Z,101198.81
2019-01-05T14:06:21.122Z,101198.81
2019-01-05T14:07:14.333Z,101205.18
2019-01-05T14:08:07.392Z,101210.34
2019-01-05T14:09:14.272Z,101208.19
2019-01-05T14:10:17.596Z,101210.77
2019-01-05T14:11:10.440Z,101199.63
2019-01-05T14:12:04.896Z,101208.63
2019-01-05T14:13:05.379Z,101208.25
2019-01-05T14:13:58.483Z,101219.78
2019-01-05T14:15:11.020Z,101215.06
2019-01-05T14:16:06.063Z,101215.06
2019-01-05T14:17:06.814Z,101214.58
2019-01-05T14:18:16.854Z,101210.76
2019-01-05T14:19:10.076Z,101212.48
2019-01-05T14:20:11.890Z,101219.78
2019-01-05T14:21:03.040Z,101213.34
2019-01-05T14:22:06.657Z,101221.92
2019-01-05T14:23:19.700Z,101218.05
2019-01-05T14:24:12.769Z,101218.44
2019-01-05T14:25:05.957Z,101214.09
2019-01-05T14:26:09.311Z,101217.56
2019-01-05T14:27:02.368Z,101212.00
2019-01-05T14:27:55.317Z,101218.86
2019-01-05T14:28:48.451Z,101218.44
2019-01-05T14:29:57.763Z,101218.44
2019-01-05T14:30:52.491Z,101213.72
2019-01-05T14:31:53.375Z,101218.92
2019-01-05T14:32:43.038Z,101221.05
2019-01-05T14:33:36.125Z,101221.48
2019-01-05T14:34:29.249Z,101215.48
2019-01-05T14:35:23.029Z,101217.95
2019-01-05T14:36:18.999Z,101218.02
2019-01-05T14:37:12.454Z,101218.02
2019-01-05T14:38:05.966Z,101213.77
2019-01-05T14:39:16.278Z,101212.96
2019-01-05T14:40:07.063Z,101218.91
2019-01-05T14:41:00.239Z,101215.48
2019-01-05T14:41:53.463Z,101218.44
2019-01-05T14:42:54.016Z,101222.34
2019-01-05T14:43:48.437Z,101215.06
2019-01-05T14:44:41.256Z,101228.34
2019-01-05T14:45:44.885Z,101228.34
2019-01-05T14:46:50.094Z,101223.14
2019-01-05T14:47:53.473Z,101216.34
2019-01-05T14:48:46.404Z,101221.92
2019-01-05T14:49:43.707Z,101227.50
2019-01-05T14:50:40.838Z,101228.30
2019-01-05T14:51:35.532Z,101228.30
2019-01-05T14:52:38.546Z,101228.35
2019-01-05T14:53:39.027Z,101228.35
2019-01-05T14:54:32.157Z,101223.69
2019-01-05T14:55:32.547Z,101232.22
2019-01-05T14:56:45.445Z,101230.94
2019-01-05T14:57:49.039Z,101228.77
2019-01-05T14:58:41.732Z,101226.16
2019-01-05T14:59:36.125Z,101231.29
2019-01-05T15:00:35.157Z,101227.44
2019-01-05T15:01:41.325Z,101233.92
2019-01-05T15:02:38.026Z,101233.08
2019-01-05T15:03:32.402Z,101233.08
2019-01-05T15:04:35.215Z,101227.98
2019-01-05T15:05:28.179Z,101234.80
2019-01-05T15:06:25.382Z,101221.00
2019-01-05T15:07:37.821Z,101236.50
2019-01-05T15:08:41.331Z,101221.11
2019-01-05T15:09:34.666Z,101235.27
2019-01-05T15:10:32.883Z,101236.08
2019-01-05T15:11:25.784Z,101226.27
2019-01-05T15:12:32.130Z,101234.41
2019-01-05T15:13:18.368Z,101228.40
2019-01-05T15:14:10.804Z,101239.14
2019-01-05T15:15:08.447Z,101229.70
2019-01-05T15:16:09.552Z,101240.89
2019-01-05T15:17:07.091Z,101239.18
2019-01-05T15:17:59.971Z,101231.89
2019-01-05T15:18:53.069Z,101241.75
2019-01-05T15:19:55.083Z,101237.94
2019-01-05T15:20:49.461Z,101243.89
2019-01-05T15:21:42.691Z,101237.89
2019-01-05T15:22:35.776Z,101248.61
2019-01-05T15:23:36.237Z,101246.04
2019-01-05T15:24:30.636Z,101247.33
2019-01-05T15:25:23.509Z,101242.18
2019-01-05T15:26:16.724Z,101248.61
2019-01-05T15:27:10.186Z,101248.61
2019-01-05T15:28:03.279Z,101245.61
2019-01-05T15:29:09.555Z,101238.33
2019-01-05T15:30:15.491Z,101243.47
2019-01-05T15:31:10.355Z,101244.80
2019-01-05T15:32:19.925Z,101246.08
2019-01-05T15:33:29.383Z,101240.51
2019-01-05T15:34:36.254Z,101248.66
2019-01-05T15:35:30.453Z,101240.13
2019-01-05T15:36:20.712Z,101256.80
2019-01-05T15:37:30.742Z,101255.52
2019-01-05T15:38:33.389Z,101249.48
2019-01-05T15:39:37.894Z,101254.23
2019-01-05T15:40:33.150Z,101256.81
2019-01-05T15:41:34.071Z,101259.80
2019-01-05T15:42:44.755Z,101253.33
2019-01-05T15:43:37.720Z,101253.33